createdAt,value
2023-01-19T00:15:42.838Z,82.43
2023-01-19T00:45:47.768Z,83.20
2023-01-19T01:15:52.528Z,84.04
2023-01-19T01:45:56.617Z,85.50
2023-01-19T02:16:03.046Z,85.78
2023-01-19T02:46:07.451Z,86.92
2023-01-19T03:16:17.742Z,86.22
2023-01-19T03:46:22.240Z,85.49
2023-01-19T04:16:26.452Z,85.61
2023-01-19T04:46:31.006Z,86.91
2023-01-19T05:16:35.607Z,86.77
2023-01-19T05:46:39.972Z,87.55
2023-01-19T06:16:44.117Z,87.87
2023-01-19T06:46:49.057Z,86.49
2023-01-19T07:16:53.327Z,84.23
2023-01-19T07:46:57.458Z,81.35
2023-01-19T08:17:02.891Z,84.92
2023-01-19T08:47:08.661Z,93.20
2023-01-19T09:17:14.659Z,91.85
2023-01-19T09:47:24.145Z,90.43
2023-01-19T10:17:38.526Z,91.83
2023-01-19T10:47:44.143Z,86.79
2023-01-19T11:17:49.099Z,84.16
2023-01-19T11:47:56.260Z,86.39
2023-01-19T12:18:02.503Z,88.32
2023-01-19T12:48:11.718Z,85.31
2023-01-19T13:18:19.796Z,85.27
2023-01-19T13:48:25.224Z,83.18
2023-01-19T14:18:31.070Z,80.56
2023-01-19T14:48:35.440Z,76.45
2023-01-19T15:18:39.637Z,74.14
2023-01-19T15:48:44.518Z,77.42
2023-01-19T16:18:49.589Z,79.37
2023-01-19T16:48:54.296Z,80.43
2023-01-19T17:18:59.766Z,81.07
2023-01-19T17:49:05.619Z,82.11
2023-01-19T18:19:09.884Z,82.28
2023-01-19T18:49:14.498Z,82.28
2023-01-19T19:19:19.138Z,82.38
2023-01-19T19:49:23.777Z,82.64
2023-01-19T20:19:28.194Z,82.95
2023-01-19T20:49:32.753Z,83.37
2023-01-19T21:19:36.781Z,83.86
2023-01-19T21:49:41.118Z,85.73
2023-01-19T22:19:45.317Z,84.30
2023-01-19T22:49:49.683Z,84.78
2023-01-19T23:19:53.858Z,81.30
2023-01-19T23:49:57.849Z,84.69
